Watertown, New York
Current Conditions -  °F | °C
As of 6:56 AM on Friday 31 Oct 2014 (Local Time) from KART Reporting Station
Overcast Overcast  
Wind Chill: 34°   Ceiling: 7500
Heat Index: 34°   Visibility: 10mi
Dew Point: 29°   Wind: 3mph
Humidity: 82%   Direction: 60°ENE
Pressure: 30.02"   Gusts: NA
Location:  43.98°N, 75.91°W
Report Text: KART 311056Z AUTO 06003KT 10SM FEW039 BKN075 OVC110 01/M02 A3002 RMK AO2 SLP169 I1000 T00111017
Loading
Personal Weather Stations






























Interactive Weather Map
Tropical Storm Tracking
New forecast layout! Learn more

10-Day Weather Forecast

Advertisements
Track Severe Weather on mobile